Aviation Digital Data Service (ADDS)

Output produced by METARs form (1214 UTC 23 August 2017)
found at http://aviationweather.gov/adds/metars/
 
KAVL 231125Z 2312/2412 VRB03KT P6SM FEW050 
     FM231400 32005KT P6SM VCSH BKN040 
     FM231500 33009KT P6SM -SHRA BKN040 
     TEMPO 2316/2320 3SM -TSRA BKN030CB 
     FM232000 34012G20KT P6SM VCSH BKN040 
     FM240000 34005KT P6SM SCT050